Terminal Aerodrome Forecast
Issued by NWS

Home | Current Version | Previous Version | Text Only | Print | Product List | Glossary On
Versions: 1 2 3 4 5 6 7 8 9 10 11 12 13 14 15 16 17 18
087
FTUS43 KFGF 260520
TAFTVF
TAF
KTVF 260520Z 2606/2706 08006KT P6SM VCTS BKN060CB
     FM260800 07004KT P6SM SCT060
     FM261800 01006KT P6SM FEW250=

USA.gov is the U.S. government's official web portal to all federal, state and local government web resources and services.